Time;durP1;ratioP1;P1;durP2;ratioP2;P2;SDS_P1;SDS_P2;PMS_P1;PMS_P2;Temp;Humidity;BMP_temperature;BMP_pressure;BME280_temperature;BME280_humidity;BME280_pressure;Samples;Min_cycle;Max_cycle;Signal;HPM_P1;HPM_P2
2022/05/10 00:00:07;;;;;;;;;;;18.10;96.90;;;;;;5036132;28;19905;-75
2022/05/10 00:02:33;;;;;;;;;;;18.10;97.10;;;;;;5036377;28;19905;-73
2022/05/10 00:04:59;;;;;;;;;;;18.00;97.10;;;;;;5036037;28;20457;-74
2022/05/10 00:07:25;;;;;;;;;;;18.00;97.20;;;;;;5035999;28;19909;-72
2022/05/10 00:09:51;;;;;;;;;;;18.00;97.40;;;;;;5035964;28;20385;-75
2022/05/10 00:12:16;;;;;;;;;;;18.00;97.50;;;;;;5035899;28;19963;-75
2022/05/10 00:14:41;;;;;;;;;;;17.90;97.60;;;;;;5018028;28;19909;-74
2022/05/10 00:17:08;;;;;;;;;;;17.80;98.10;;;;;;5035733;28;20361;-75
2022/05/10 00:19:34;;;;;;;;;;;17.70;98.50;;;;;;5035806;28;19967;-74
2022/05/10 00:21:59;;;;;;;;;;;17.70;98.90;;;;;;5036013;28;20346;-75
2022/05/10 00:24:25;;;;;;;;;;;17.60;99.20;;;;;;5035453;28;19921;-74
2022/05/10 00:26:50;;;;;;;;;;;17.60;99.40;;;;;;5035660;28;19905;-73
2022/05/10 00:29:16;;;;;;;;;;;17.60;99.80;;;;;;5035891;28;20369;-74
2022/05/10 00:31:42;;;;;;;;;;;17.70;99.90;;;;;;5035538;28;19905;-74
2022/05/10 00:34:08;;;;;;;;;;;17.80;99.70;;;;;;5035431;28;19947;-75
2022/05/10 00:36:34;;;;;;;;;;;17.80;99.50;;;;;;5035454;28;20003;-73
2022/05/10 00:38:59;;;;;;;;;;;17.80;99.60;;;;;;5017655;28;19987;-74
2022/05/10 00:41:28;;;;;;;;;;;17.70;99.90;;;;;;5035356;28;19916;-75
2022/05/10 00:43:57;;;;;;;;;;;17.70;99.90;;;;;;5035315;28;20328;-73
2022/05/10 00:46:26;;;;;;;;;;;17.80;99.90;;;;;;5035236;28;19905;-73
2022/05/10 00:48:51;;;;;;;;;;;17.80;99.90;;;;;;5035458;28;19912;-74
2022/05/10 00:51:17;;;;;;;;;;;17.70;99.90;;;;;;5035144;28;19905;-73
2022/05/10 00:53:51;;;;;;;;;;;17.70;99.90;;;;;;5035062;28;20476;-74
2022/05/10 00:56:31;;;;;;;;;;;17.70;99.90;;;;;;5035046;28;19926;-75
2022/05/10 00:59:08;;;;;;;;;;;17.50;99.90;;;;;;5035000;28;19905;-74
2022/05/10 01:01:34;;;;;;;;;;;17.30;99.90;;;;;;5035269;28;19984;-73
2022/05/10 01:04:19;;;;;;;;;;;17.20;99.90;;;;;;5034926;28;19955;-74
2022/05/10 01:06:50;;;;;;;;;;;17.30;99.90;;;;;;5034886;28;19905;-72
2022/05/10 01:09:20;;;;;;;;;;;17.30;99.90;;;;;;5035116;28;19913;-73
2022/05/10 01:11:51;;;;;;;;;;;17.20;99.90;;;;;;5034758;28;20340;-75
2022/05/10 01:14:26;;;;;;;;;;;17.20;99.90;;;;;;5034625;28;19909;-73
2022/05/10 01:16:52;;;;;;;;;;;17.40;99.90;;;;;;5034601;28;20427;-74
2022/05/10 01:19:17;;;;;;;;;;;17.40;99.90;;;;;;5034938;28;19905;-74
2022/05/10 01:22:01;;;;;;;;;;;17.30;99.90;;;;;;5034559;28;20373;-75
2022/05/10 01:24:45;;;;;;;;;;;17.30;99.90;;;;;;5034651;28;19924;-74
2022/05/10 01:27:29;;;;;;;;;;;17.40;99.90;;;;;;5034491;28;19959;-75
2022/05/10 01:30:04;;;;;;;;;;;17.30;99.90;;;;;;5034727;28;20015;-73
2022/05/10 01:35:27;;;;;;;;;;;17.10;99.90;;;;;;5003383;28;19913;-73
2022/05/10 01:37:55;;;;;;;;;;;17.00;99.90;;;;;;5034403;28;19935;-73
2022/05/10 01:40:37;;;;;;;;;;;16.90;99.90;;;;;;5016579;28;19912;-74
2022/05/10 01:43:25;;;;;;;;;;;17.10;99.90;;;;;;5016493;28;19905;-74
2022/05/10 01:45:54;;;;;;;;;;;17.00;99.90;;;;;;5020867;28;20008;-74
2022/05/10 01:48:20;;;;;;;;;;;16.90;99.90;;;;;;5034095;28;19905;-73
2022/05/10 01:50:58;;;;;;;;;;;16.80;99.90;;;;;;5034338;28;20345;-74
2022/05/10 01:53:26;;;;;;;;;;;16.80;99.90;;;;;;5034311;28;19909;-75
2022/05/10 01:55:53;;;;;;;;;;;16.70;99.90;;;;;;5034303;28;20452;-73
2022/05/10 01:58:26;;;;;;;;;;;16.80;99.90;;;;;;5034265;28;19912;-72
2022/05/10 02:00:59;;;;;;;;;;;16.70;99.90;;;;;;5016267;28;19987;-74
2022/05/10 02:03:25;;;;;;;;;;;16.60;99.90;;;;;;5034477;28;19956;-72
2022/05/10 02:06:06;;;;;;;;;;;16.60;99.90;;;;;;5033869;28;19943;-72
2022/05/10 02:08:38;;;;;;;;;;;16.60;99.90;;;;;;5034449;28;19959;-74
2022/05/10 02:11:09;;;;;;;;;;;16.60;99.90;;;;;;5033798;28;20289;-74
2022/05/10 02:13:37;;;;;;;;;;;16.60;99.90;;;;;;5034306;28;19905;-75
2022/05/10 02:16:06;;;;;;;;;;;16.60;99.90;;;;;;5033650;28;19905;-74
2022/05/10 02:18:38;;;;;;;;;;;16.70;99.90;;;;;;5033682;28;19912;-74
2022/05/10 02:21:03;;;;;;;;;;;16.80;99.90;;;;;;5033704;28;19928;-73
2022/05/10 02:23:32;;;;;;;;;;;16.80;99.90;;;;;;5033701;28;20354;-73
2022/05/10 02:26:03;;;;;;;;;;;16.70;99.90;;;;;;5033925;28;19905;-72
2022/05/10 02:28:31;;;;;;;;;;;16.70;99.90;;;;;;5015592;28;20274;-74
2022/05/10 02:30:58;;;;;;;;;;;16.50;99.90;;;;;;5033588;28;19905;-74
2022/05/10 02:33:24;;;;;;;;;;;16.40;99.90;;;;;;5033583;28;19905;-74
2022/05/10 02:35:55;;;;;;;;;;;16.20;99.90;;;;;;5034088;28;20378;-73
2022/05/10 02:38:33;;;;;;;;;;;16.30;99.90;;;;;;5033818;28;19912;-74
2022/05/10 02:41:00;;;;;;;;;;;16.30;99.90;;;;;;5034095;28;19912;-73
2022/05/10 02:43:30;;;;;;;;;;;16.20;99.90;;;;;;5033454;28;19992;-72
2022/05/10 02:45:56;;;;;;;;;;;16.30;99.90;;;;;;5033450;28;19909;-75
2022/05/10 02:48:21;;;;;;;;;;;16.30;99.90;;;;;;5034840;28;20008;-72
2022/05/10 02:50:47;;;;;;;;;;;16.30;99.90;;;;;;5037444;28;19911;-74
2022/05/10 02:53:12;;;;;;;;;;;16.40;99.90;;;;;;5037437;28;19952;-75
2022/05/10 02:55:43;;;;;;;;;;;16.50;99.90;;;;;;5037268;28;19915;-72
2022/05/10 02:58:14;;;;;;;;;;;16.30;99.90;;;;;;5037897;28;19905;-74
2022/05/10 03:00:40;;;;;;;;;;;16.30;99.90;;;;;;5037283;28;19905;-73
2022/05/10 03:03:07;;;;;;;;;;;16.30;99.90;;;;;;5037438;28;19931;-74
2022/05/10 03:05:33;;;;;;;;;;;16.20;99.90;;;;;;5037161;28;19905;-72
2022/05/10 03:07:59;;;;;;;;;;;16.20;99.90;;;;;;5037382;28;20258;-73
2022/05/10 03:10:25;;;;;;;;;;;16.00;99.90;;;;;;5037062;28;20381;-73
2022/05/10 03:12:50;;;;;;;;;;;16.00;99.90;;;;;;5037306;28;19905;-74
2022/05/10 03:15:16;;;;;;;;;;;15.90;99.90;;;;;;5036853;28;19916;-74
2022/05/10 03:17:42;;;;;;;;;;;15.80;99.90;;;;;;5036931;28;19912;-75
2022/05/10 03:20:08;;;;;;;;;;;15.90;99.90;;;;;;5036914;28;20030;-73
2022/05/10 03:22:33;;;;;;;;;;;15.80;99.90;;;;;;5037409;28;19959;-75
2022/05/10 03:24:58;;;;;;;;;;;15.80;99.90;;;;;;5036532;28;20368;-73
2022/05/10 03:27:24;;;;;;;;;;;15.70;99.90;;;;;;5037071;28;19905;-75
2022/05/10 03:29:50;;;;;;;;;;;15.60;99.90;;;;;;5019023;28;19913;-73
2022/05/10 03:32:16;;;;;;;;;;;15.60;99.90;;;;;;5036727;28;19967;-73
2022/05/10 03:34:54;;;;;;;;;;;15.70;99.90;;;;;;5036573;28;19909;-72
2022/05/10 03:37:19;;;;;;;;;;;15.60;99.90;;;;;;5036912;28;19912;-75
2022/05/10 03:39:45;;;;;;;;;;;15.60;99.90;;;;;;5036524;28;19909;-73
2022/05/10 03:42:10;;;;;;;;;;;15.50;99.90;;;;;;5037070;28;20392;-74
2022/05/10 03:44:36;;;;;;;;;;;15.60;99.90;;;;;;5036424;28;19907;-73
2022/05/10 03:47:02;;;;;;;;;;;15.70;99.90;;;;;;5036655;28;20427;-74
2022/05/10 03:49:27;;;;;;;;;;;15.60;99.90;;;;;;5036386;28;19905;-73
2022/05/10 03:51:56;;;;;;;;;;;15.60;99.90;;;;;;5036601;28;20432;-74
2022/05/10 03:54:22;;;;;;;;;;;15.60;99.90;;;;;;5036459;28;19916;-73
2022/05/10 03:56:47;;;;;;;;;;;15.50;99.90;;;;;;5036215;28;19905;-72
2022/05/10 03:59:13;;;;;;;;;;;15.50;99.90;;;;;;5035698;28;19904;-76
2022/05/10 04:01:38;;;;;;;;;;;15.50;99.90;;;;;;5018443;28;19905;-74
2022/05/10 04:04:04;;;;;;;;;;;15.40;99.90;;;;;;5036111;28;19947;-76
2022/05/10 04:06:30;;;;;;;;;;;15.40;99.90;;;;;;5036073;28;19905;-73
2022/05/10 04:08:56;;;;;;;;;;;15.40;99.90;;;;;;5036286;28;19909;-74
2022/05/10 04:11:21;;;;;;;;;;;15.30;99.90;;;;;;5035953;28;20333;-74
2022/05/10 04:13:47;;;;;;;;;;;15.10;99.90;;;;;;5035816;28;20004;-74
2022/05/10 04:16:12;;;;;;;;;;;15.00;99.90;;;;;;5035897;28;19995;-74
2022/05/10 04:18:38;;;;;;;;;;;15.00;99.90;;;;;;5036068;28;19912;-74
2022/05/10 04:21:04;;;;;;;;;;;15.10;99.90;;;;;;5017953;28;20437;-74
2022/05/10 04:23:30;;;;;;;;;;;15.10;99.90;;;;;;5035664;28;19999;-74
2022/05/10 04:26:01;;;;;;;;;;;15.20;99.90;;;;;;5035957;28;19956;-73
2022/05/10 04:28:26;;;;;;;;;;;15.10;99.90;;;;;;5035651;28;19912;-72
2022/05/10 04:30:52;;;;;;;;;;;15.10;99.90;;;;;;5035836;28;19905;-73
2022/05/10 04:33:17;;;;;;;;;;;15.10;99.90;;;;;;5035511;28;19912;-74
2022/05/10 04:35:43;;;;;;;;;;;15.10;99.90;;;;;;5035468;28;19909;-75
2022/05/10 04:38:08;;;;;;;;;;;15.10;99.90;;;;;;5035462;28;19905;-74
2022/05/10 04:43:18;;;;;;;;;;;14.90;99.90;;;;;;5035946;28;19966;-75
2022/05/10 04:45:44;;;;;;;;;;;15.00;99.90;;;;;;5035294;28;20361;-75
2022/05/10 04:48:10;;;;;;;;;;;15.10;99.90;;;;;;5017510;28;20011;-75
2022/05/10 04:50:35;;;;;;;;;;;15.00;99.90;;;;;;5035218;28;19916;-74
2022/05/10 04:53:01;;;;;;;;;;;15.10;99.90;;;;;;5035147;28;20357;-74
2022/05/10 04:55:26;;;;;;;;;;;15.10;99.90;;;;;;5035327;28;19916;-73
2022/05/10 04:57:52;;;;;;;;;;;14.90;99.90;;;;;;5035059;28;19912;-74
2022/05/10 05:00:18;;;;;;;;;;;14.90;99.90;;;;;;5035550;28;19905;-75
2022/05/10 05:02:43;;;;;;;;;;;14.90;99.90;;;;;;5035246;28;19905;-74
2022/05/10 05:05:10;;;;;;;;;;;14.90;99.90;;;;;;5034932;28;19909;-75
2022/05/10 05:07:36;;;;;;;;;;;14.80;99.90;;;;;;5034922;28;19957;-73
2022/05/10 05:10:02;;;;;;;;;;;14.90;99.90;;;;;;5034721;28;19908;-73
2022/05/10 05:12:28;;;;;;;;;;;15.00;99.90;;;;;;5034122;28;19912;-75
2022/05/10 05:14:54;;;;;;;;;;;15.00;99.90;;;;;;5034869;28;19908;-74
2022/05/10 05:17:19;;;;;;;;;;;15.10;99.90;;;;;;5034677;28;19952;-76
2022/05/10 05:19:45;;;;;;;;;;;15.20;99.90;;;;;;5034644;28;19909;-75
2022/05/10 05:22:10;;;;;;;;;;;15.20;99.90;;;;;;5034904;28;20005;-74
2022/05/10 05:24:36;;;;;;;;;;;15.20;99.90;;;;;;5034370;28;19952;-74
2022/05/10 05:27:01;;;;;;;;;;;15.10;99.90;;;;;;5034825;28;20349;-74
2022/05/10 05:29:27;;;;;;;;;;;15.20;99.90;;;;;;5034484;28;19905;-76
2022/05/10 05:31:53;;;;;;;;;;;15.10;99.90;;;;;;5034708;28;20272;-74
2022/05/10 05:34:18;;;;;;;;;;;15.20;99.90;;;;;;5034297;28;19909;-75
2022/05/10 05:37:32;;;;;;;;;;;15.50;99.90;;;;;;5034353;28;20384;-74
2022/05/10 05:39:30;;;;;;;;;;;15.70;99.90;;;;;;5034083;28;19905;-74
2022/05/10 05:41:55;;;;;;;;;;;15.90;99.90;;;;;;5034806;28;19909;-75
2022/05/10 05:44:23;;;;;;;;;;;15.90;99.90;;;;;;5034194;28;19905;-74
2022/05/10 05:46:49;;;;;;;;;;;15.70;99.90;;;;;;5034186;28;20277;-75
2022/05/10 05:49:14;;;;;;;;;;;15.80;99.90;;;;;;5034167;28;19909;-75
2022/05/10 05:51:40;;;;;;;;;;;16.20;99.90;;;;;;5034669;28;19905;-74
2022/05/10 05:54:08;;;;;;;;;;;16.50;99.90;;;;;;5016229;28;19915;-74
2022/05/10 05:56:34;;;;;;;;;;;16.90;99.90;;;;;;5034029;28;20377;-75
2022/05/10 05:59:00;;;;;;;;;;;17.80;99.90;;;;;;5034554;28;19909;-74
2022/05/10 06:01:26;;;;;;;;;;;20.40;99.90;;;;;;5033915;28;19951;-74
2022/05/10 06:03:51;;;;;;;;;;;22.50;99.90;;;;;;5016157;28;19905;-75
2022/05/10 06:06:17;;;;;;;;;;;24.20;98.70;;;;;;5034200;28;19905;-73
2022/05/10 06:08:43;;;;;;;;;;;25.00;96.20;;;;;;5033876;28;19905;-74
2022/05/10 06:11:08;;;;;;;;;;;26.40;94.30;;;;;;5033848;28;19905;-75
2022/05/10 06:13:37;;;;;;;;;;;28.80;91.60;;;;;;5016038;28;19904;-75
2022/05/10 06:16:06;;;;;;;;;;;30.70;85.00;;;;;;5033982;28;19905;-75
2022/05/10 06:18:32;;;;;;;;;;;32.10;79.00;;;;;;5033699;28;19912;-73
2022/05/10 06:20:57;;;;;;;;;;;34.00;73.00;;;;;;5033675;28;20273;-74
2022/05/10 06:23:23;;;;;;;;;;;35.10;68.30;;;;;;5033799;28;19911;-74
2022/05/10 06:25:48;;;;;;;;;;;35.40;64.80;;;;;;5033951;28;19905;-75
2022/05/10 06:28:14;;;;;;;;;;;36.20;61.70;;;;;;5033601;28;19905;-75
2022/05/10 06:30:39;;;;;;;;;;;35.40;60.60;;;;;;5033893;28;19999;-75
2022/05/10 06:33:05;;;;;;;;;;;35.20;60.30;;;;;;5033853;28;19909;-74
2022/05/10 06:35:30;;;;;;;;;;;35.50;60.10;;;;;;5033807;28;19909;-75
2022/05/10 06:40:40;;;;;;;;;;;37.30;57.90;;;;;;5034149;28;19912;-76
2022/05/10 06:43:06;;;;;;;;;;;37.90;56.20;;;;;;5033496;28;19996;-74
2022/05/10 06:45:32;;;;;;;;;;;38.30;55.30;;;;;;5015735;28;19932;-76
2022/05/10 06:47:57;;;;;;;;;;;38.80;54.10;;;;;;5033455;28;19905;-76
2022/05/10 06:50:24;;;;;;;;;;;39.40;52.80;;;;;;5033990;28;19909;-75
2022/05/10 06:52:50;;;;;;;;;;;39.90;51.60;;;;;;5033381;28;19905;-75
2022/05/10 06:55:16;;;;;;;;;;;39.90;51.50;;;;;;5015584;28;20385;-76
2022/05/10 06:57:42;;;;;;;;;;;40.60;50.70;;;;;;5033361;28;19931;-75
2022/05/10 07:00:09;;;;;;;;;;;40.40;49.90;;;;;;5033911;28;19905;-75
2022/05/10 07:02:38;;;;;;;;;;;40.00;50.10;;;;;;5038898;28;20043;-76
2022/05/10 07:05:04;;;;;;;;;;;40.00;50.30;;;;;;5025740;28;20629;-75
2022/05/10 07:07:29;;;;;;;;;;;40.30;48.80;;;;;;5049710;28;19915;-78
2022/05/10 07:09:55;;;;;;;;;;;40.60;48.20;;;;;;5050317;28;19919;-76
2022/05/10 07:12:20;;;;;;;;;;;40.50;46.70;;;;;;5048591;28;20376;-75
2022/05/10 07:14:46;;;;;;;;;;;40.10;46.80;;;;;;5033255;28;20376;-75
2022/05/10 07:17:12;;;;;;;;;;;40.10;46.40;;;;;;5052267;28;20340;-75
2022/05/10 07:19:38;;;;;;;;;;;40.10;46.10;;;;;;5052175;28;19962;-75
2022/05/10 07:22:03;;;;;;;;;;;40.30;45.80;;;;;;5049780;28;19905;-75
2022/05/10 07:24:29;;;;;;;;;;;40.10;45.30;;;;;;5044698;28;20290;-75
2022/05/10 07:26:54;;;;;;;;;;;40.30;45.40;;;;;;5052078;28;19904;-76
2022/05/10 07:29:20;;;;;;;;;;;40.20;45.10;;;;;;5065297;28;19999;-76
2022/05/10 07:31:46;;;;;;;;;;;40.50;44.50;;;;;;5052938;28;19909;-75
2022/05/10 07:34:13;;;;;;;;;;;40.60;43.80;;;;;;5051593;28;19919;-77
2022/05/10 07:36:39;;;;;;;;;;;40.60;43.90;;;;;;5056840;28;19904;-75
2022/05/10 07:39:06;;;;;;;;;;;39.90;43.70;;;;;;5056489;28;19912;-75
2022/05/10 07:41:31;;;;;;;;;;;39.40;44.50;;;;;;5058817;28;19917;-77
2022/05/10 07:43:57;;;;;;;;;;;39.20;43.30;;;;;;5055049;28;20285;-77
2022/05/10 07:46:23;;;;;;;;;;;39.00;43.50;;;;;;5054828;28;19911;-76
2022/05/10 07:48:48;;;;;;;;;;;38.00;43.20;;;;;;5054074;28;19909;-76
2022/05/10 07:51:14;;;;;;;;;;;37.80;43.40;;;;;;5055484;28;19959;-75
2022/05/10 07:53:41;;;;;;;;;;;36.90;43.30;;;;;;5056091;28;19931;-75
2022/05/10 07:56:06;;;;;;;;;;;36.90;43.30;;;;;;5054269;28;20305;-75
2022/05/10 07:58:33;;;;;;;;;;;36.90;43.40;;;;;;5056143;28;19905;-74
2022/05/10 08:00:59;;;;;;;;;;;36.20;43.50;;;;;;5051687;28;20331;-73
2022/05/10 08:03:25;;;;;;;;;;;35.80;43.50;;;;;;5056111;28;19911;-74
2022/05/10 08:05:51;;;;;;;;;;;35.40;44.00;;;;;;5056035;28;19905;-75
2022/05/10 08:08:17;;;;;;;;;;;35.00;45.00;;;;;;5053490;28;19909;-72
2022/05/10 08:10:43;;;;;;;;;;;35.20;44.30;;;;;;5053842;28;19909;-71
2022/05/10 08:13:20;;;;;;;;;;;35.10;44.70;;;;;;5055857;28;19948;-75
2022/05/10 08:15:45;;;;;;;;;;;34.90;44.60;;;;;;5055849;28;20400;-75
2022/05/10 08:18:11;;;;;;;;;;;34.90;44.60;;;;;;5055477;28;19905;-75
2022/05/10 08:20:37;;;;;;;;;;;34.30;45.60;;;;;;5052780;28;19909;-76
2022/05/10 08:23:04;;;;;;;;;;;33.80;45.20;;;;;;5056009;28;19905;-76
2022/05/10 08:25:29;;;;;;;;;;;33.40;45.90;;;;;;5054876;28;19917;-75
2022/05/10 08:27:56;;;;;;;;;;;33.10;46.00;;;;;;5052901;28;19921;-76
2022/05/10 08:30:22;;;;;;;;;;;32.50;46.80;;;;;;5043156;28;19955;-75
2022/05/10 08:32:47;;;;;;;;;;;32.10;47.10;;;;;;5036183;28;19905;-76
2022/05/10 08:35:13;;;;;;;;;;;32.00;48.10;;;;;;5044484;28;19924;-76
2022/05/10 08:37:38;;;;;;;;;;;31.90;48.10;;;;;;5055937;28;19905;-76
2022/05/10 08:40:08;;;;;;;;;;;31.90;47.70;;;;;;5054400;28;19916;-74
2022/05/10 08:42:39;;;;;;;;;;;31.40;48.60;;;;;;5050824;28;20297;-76
2022/05/10 08:45:06;;;;;;;;;;;31.10;48.70;;;;;;5035660;28;19909;-77
2022/05/10 08:47:32;;;;;;;;;;;31.20;48.80;;;;;;5037324;28;20008;-79
2022/05/10 08:49:58;;;;;;;;;;;31.20;48.70;;;;;;5053438;28;20277;-74
2022/05/10 08:52:28;;;;;;;;;;;31.10;48.70;;;;;;5054442;28;19931;-76
2022/05/10 08:54:53;;;;;;;;;;;30.60;49.60;;;;;;5055430;28;20419;-75
2022/05/10 08:57:38;;;;;;;;;;;30.10;49.40;;;;;;5055580;28;19947;-77
2022/05/10 09:00:16;;;;;;;;;;;29.60;50.20;;;;;;5035782;28;19915;-74
2022/05/10 09:02:44;;;;;;;;;;;29.30;50.90;;;;;;5046032;28;19909;-76
2022/05/10 09:05:15;;;;;;;;;;;29.30;51.10;;;;;;5047279;28;19919;-77
2022/05/10 09:07:44;;;;;;;;;;;29.30;51.40;;;;;;5045062;28;19909;-74
2022/05/10 09:10:16;;;;;;;;;;;29.20;52.50;;;;;;5052496;28;19912;-74
2022/05/10 09:12:49;;;;;;;;;;;29.20;52.40;;;;;;5052915;28;19999;-76
2022/05/10 09:15:15;;;;;;;;;;;29.00;52.70;;;;;;5054305;28;19909;-74
2022/05/10 09:17:40;;;;;;;;;;;29.00;52.60;;;;;;5053316;28;19959;-74
2022/05/10 09:20:07;;;;;;;;;;;29.10;52.40;;;;;;5054695;28;19948;-75
2022/05/10 09:22:36;;;;;;;;;;;28.80;52.80;;;;;;5052217;28;19909;-75
2022/05/10 09:25:10;;;;;;;;;;;28.80;53.60;;;;;;5052862;28;19927;-75
2022/05/10 09:27:37;;;;;;;;;;;28.70;53.10;;;;;;5035107;28;19913;-75
2022/05/10 09:30:03;;;;;;;;;;;28.90;53.20;;;;;;5016734;28;19912;-77
2022/05/10 09:35:27;;;;;;;;;;;28.50;53.00;;;;;;5036771;28;19962;-77
2022/05/10 09:37:59;;;;;;;;;;;28.70;52.60;;;;;;5036755;28;19920;-76
2022/05/10 09:40:42;;;;;;;;;;;28.50;52.50;;;;;;5054199;28;19904;-77
2022/05/10 09:43:17;;;;;;;;;;;28.10;53.40;;;;;;5053427;28;19904;-78
2022/05/10 09:45:43;;;;;;;;;;;28.20;53.70;;;;;;5046641;28;19932;-77
2022/05/10 09:48:09;;;;;;;;;;;28.30;53.60;;;;;;5034307;28;20421;-76
2022/05/10 09:50:54;;;;;;;;;;;28.30;53.20;;;;;;5036638;28;19905;-76
2022/05/10 09:53:27;;;;;;;;;;;28.20;53.20;;;;;;5036178;28;19909;-76
2022/05/10 09:55:53;;;;;;;;;;;28.30;53.60;;;;;;5054227;28;19955;-75
2022/05/10 09:58:24;;;;;;;;;;;28.10;53.00;;;;;;5051142;28;19983;-77
2022/05/10 10:00:53;;;;;;;;;;;28.10;53.70;;;;;;5035780;28;19908;-74
2022/05/10 10:03:26;;;;;;;;;;;28.00;54.50;;;;;;5052682;28;20281;-73
2022/05/10 10:05:54;;;;;;;;;;;28.10;54.00;;;;;;5047085;28;19908;-75
2022/05/10 10:08:36;;;;;;;;;;;28.00;54.10;;;;;;5047706;28;20353;-74
2022/05/10 10:11:01;;;;;;;;;;;27.70;54.20;;;;;;5053095;28;19908;-76
2022/05/10 10:13:32;;;;;;;;;;;27.80;53.80;;;;;;5044256;28;19916;-72
2022/05/10 10:15:58;;;;;;;;;;;27.70;54.70;;;;;;5052265;28;19909;-76
2022/05/10 10:18:44;;;;;;;;;;;27.80;54.80;;;;;;5053641;28;19909;-74
2022/05/10 10:21:33;;;;;;;;;;;27.80;54.30;;;;;;5054030;28;20365;-76
2022/05/10 10:23:59;;;;;;;;;;;27.90;54.60;;;;;;5014302;28;19921;-77
2022/05/10 10:26:51;;;;;;;;;;;27.90;54.50;;;;;;5049401;28;19972;-75
2022/05/10 10:29:25;;;;;;;;;;;27.90;54.80;;;;;;5049725;28;19905;-78
2022/05/10 10:31:54;;;;;;;;;;;27.80;55.70;;;;;;5050872;28;20381;-76
2022/05/10 10:34:22;;;;;;;;;;;28.00;54.50;;;;;;5035297;28;20534;-78
2022/05/10 10:36:54;;;;;;;;;;;28.00;54.70;;;;;;5035706;28;19904;-74
2022/05/10 10:39:25;;;;;;;;;;;27.70;56.20;;;;;;5053619;28;19974;-75
2022/05/10 10:42:02;;;;;;;;;;;27.80;56.00;;;;;;5053775;28;19904;-74
2022/05/10 10:44:33;;;;;;;;;;;27.90;55.40;;;;;;5053739;28;19905;-76
2022/05/10 10:47:05;;;;;;;;;;;27.90;55.30;;;;;;5054074;28;19982;-73
2022/05/10 10:49:34;;;;;;;;;;;27.80;55.40;;;;;;5054233;28;19943;-74
2022/05/10 10:51:59;;;;;;;;;;;27.80;55.70;;;;;;5053586;28;19904;-75
2022/05/10 10:54:27;;;;;;;;;;;27.80;56.50;;;;;;5053415;28;19915;-74
2022/05/10 10:56:58;;;;;;;;;;;27.60;56.40;;;;;;5053806;28;19912;-75
2022/05/10 10:59:39;;;;;;;;;;;27.60;57.20;;;;;;5053986;28;20019;-73
2022/05/10 11:02:17;;;;;;;;;;;27.70;56.70;;;;;;5053105;28;19905;-74
2022/05/10 11:05:02;;;;;;;;;;;27.80;57.30;;;;;;5052764;28;19904;-75
2022/05/10 11:07:37;;;;;;;;;;;27.80;57.60;;;;;;5053824;28;19904;-78
2022/05/10 11:10:10;;;;;;;;;;;28.00;57.90;;;;;;5055107;28;20368;-74
2022/05/10 11:12:35;;;;;;;;;;;28.10;57.10;;;;;;5056882;28;19904;-75
2022/05/10 11:15:30;;;;;;;;;;;27.90;56.30;;;;;;5056466;28;19923;-73
2022/05/10 11:17:55;;;;;;;;;;;27.60;57.10;;;;;;5002590;28;20358;-74
2022/05/10 11:20:39;;;;;;;;;;;27.60;56.90;;;;;;5057811;28;19947;-73
2022/05/10 11:23:06;;;;;;;;;;;27.60;56.90;;;;;;5057033;28;19904;-73
2022/05/10 11:25:43;;;;;;;;;;;27.50;56.70;;;;;;5073595;28;20359;-74
2022/05/10 11:28:12;;;;;;;;;;;27.30;56.80;;;;;;5075482;28;19904;-73
2022/05/10 11:30:49;;;;;;;;;;;27.50;57.10;;;;;;5076955;28;19954;-76
2022/05/10 11:33:14;;;;;;;;;;;27.30;56.80;;;;;;5077445;28;19905;-74
2022/05/10 11:35:58;;;;;;;;;;;27.40;56.80;;;;;;5075394;28;20292;-74
2022/05/10 11:38:27;;;;;;;;;;;27.30;57.10;;;;;;5076892;28;19904;-72
2022/05/10 11:41:05;;;;;;;;;;;27.40;57.00;;;;;;5075539;28;19905;-74
2022/05/10 11:43:46;;;;;;;;;;;27.30;57.20;;;;;;5077355;28;19954;-76
2022/05/10 11:46:11;;;;;;;;;;;27.20;57.40;;;;;;5075378;28;19905;-75
2022/05/10 11:48:37;;;;;;;;;;;27.10;58.20;;;;;;5076671;28;19954;-77
2022/05/10 11:54:16;;;;;;;;;;;27.10;58.30;;;;;;5076404;28;20004;-75
2022/05/10 11:56:43;;;;;;;;;;;27.10;58.00;;;;;;5075080;28;19904;-74
2022/05/10 11:59:14;;;;;;;;;;;27.00;58.70;;;;;;5076506;28;19910;-73
2022/05/10 12:01:41;;;;;;;;;;;27.10;58.80;;;;;;5076820;28;19904;-77
2022/05/10 12:04:27;;;;;;;;;;;27.20;58.30;;;;;;5076909;28;19943;-73
2022/05/10 12:06:52;;;;;;;;;;;27.20;58.60;;;;;;5076539;28;20349;-76
2022/05/10 12:09:38;;;;;;;;;;;27.10;58.70;;;;;;5076642;28;19912;-74
2022/05/10 12:12:03;;;;;;;;;;;26.90;58.40;;;;;;5076201;28;19904;-76
2022/05/10 12:23:15;;;;;;;;;;;26.80;57.60;;;;;;5076433;28;20395;-76
2022/05/10 12:25:52;;;;;;;;;;;26.80;57.30;;;;;;5056166;28;19909;-76
2022/05/10 12:28:37;;;;;;;;;;;26.80;57.40;;;;;;5038287;28;19927;-77
2022/05/10 12:31:21;;;;;;;;;;;26.80;58.00;;;;;;5056417;28;19905;-78
2022/05/10 12:34:15;;;;;;;;;;;26.90;58.50;;;;;;5056244;28;19908;-77
2022/05/10 12:36:42;;;;;;;;;;;27.00;58.20;;;;;;5038760;28;20059;-77
2022/05/10 12:39:20;;;;;;;;;;;26.90;58.30;;;;;;5056088;28;20030;-77
2022/05/10 12:41:49;;;;;;;;;;;26.90;59.40;;;;;;5038082;28;19944;-76
2022/05/10 12:44:30;;;;;;;;;;;26.90;59.30;;;;;;5056190;28;19998;-75
2022/05/10 12:47:08;;;;;;;;;;;26.80;58.50;;;;;;5056618;28;19904;-80
2022/05/10 12:49:43;;;;;;;;;;;27.00;59.30;;;;;;5055785;28;19943;-80
2022/05/10 12:52:37;;;;;;;;;;;27.00;59.10;;;;;;5055831;28;19912;-77
2022/05/10 12:55:04;;;;;;;;;;;27.10;58.90;;;;;;5037603;28;19909;-77
2022/05/10 12:57:30;;;;;;;;;;;;;;;;;;5055336;28;20007;-80
2022/05/10 12:59:56;;;;;;;;;;;;;;;;;;5055025;28;20023;-76
2022/05/10 13:02:22;;;;;;;;;;;;;;;;;;5055286;28;19905;-79
2022/05/10 13:04:50;;;;;;;;;;;;;;;;;;5054887;28;19911;-77
2022/05/10 13:07:26;;;;;;;;;;;27.10;58.40;;;;;;5037025;28;19908;-77
2022/05/10 13:10:07;;;;;;;;;;;27.10;60.10;;;;;;5055763;28;20258;-76
2022/05/10 13:12:34;;;;;;;;;;;;;;;;;;5037574;28;19911;-75
2022/05/10 13:15:01;;;;;;;;;;;;;;;;;;5054629;28;19913;-77
2022/05/10 13:17:27;;;;;;;;;;;;;;;;;;5054707;28;20347;-77
2022/05/10 13:19:52;;;;;;;;;;;;;;;;;;5036729;28;19947;-76
2022/05/10 13:22:18;;;;;;;;;;;;;;;;;;5054571;28;19999;-79
2022/05/10 13:24:45;;;;;;;;;;;27.10;59.20;;;;;;5054404;28;19924;-79
2022/05/10 13:27:22;;;;;;;;;;;27.10;59.90;;;;;;5054778;28;19951;-77
2022/05/10 13:29:48;;;;;;;;;;;27.20;60.20;;;;;;5054483;28;20344;-78
2022/05/10 13:32:33;;;;;;;;;;;27.30;60.00;;;;;;5053692;28;20392;-76
2022/05/10 13:35:07;;;;;;;;;;;27.30;61.00;;;;;;5054297;28;19908;-77
2022/05/10 13:37:34;;;;;;;;;;;27.40;60.10;;;;;;5036483;28;19905;-75
2022/05/10 13:40:05;;;;;;;;;;;27.30;59.20;;;;;;5054869;28;19904;-77
2022/05/10 13:42:31;;;;;;;;;;;27.30;58.40;;;;;;5054258;28;19904;-77
2022/05/10 13:44:56;;;;;;;;;;;27.10;58.10;;;;;;5054195;28;19912;-75
2022/05/10 13:47:30;;;;;;;;;;;27.10;58.80;;;;;;5054366;28;19904;-74
2022/05/10 13:49:57;;;;;;;;;;;26.90;57.50;;;;;;5054102;28;19912;-78
2022/05/10 13:52:25;;;;;;;;;;;27.00;58.40;;;;;;5054078;28;19912;-77
2022/05/10 13:54:55;;;;;;;;;;;27.10;58.70;;;;;;5053909;28;19908;-79
2022/05/10 13:57:25;;;;;;;;;;;27.10;58.10;;;;;;5036113;28;20276;-77
2022/05/10 13:59:58;;;;;;;;;;;27.00;57.50;;;;;;5053941;28;19912;-78
2022/05/10 14:02:25;;;;;;;;;;;26.90;57.90;;;;;;5054457;28;20350;-74
2022/05/10 14:04:52;;;;;;;;;;;26.80;57.30;;;;;;5053882;28;19911;-74
2022/05/10 14:07:25;;;;;;;;;;;26.80;57.50;;;;;;5054366;28;19905;-75
2022/05/10 14:09:53;;;;;;;;;;;26.80;57.40;;;;;;5053792;28;19954;-79
2022/05/10 14:12:23;;;;;;;;;;;26.80;57.60;;;;;;5053762;28;19951;-76
2022/05/10 14:14:50;;;;;;;;;;;26.80;57.60;;;;;;5053579;28;19913;-77
2022/05/10 14:17:17;;;;;;;;;;;26.80;58.00;;;;;;5053703;28;19913;-75
2022/05/10 14:19:48;;;;;;;;;;;26.60;57.70;;;;;;5053939;28;19905;-76
2022/05/10 14:22:16;;;;;;;;;;;26.70;58.00;;;;;;5053653;28;19904;-76
2022/05/10 14:24:43;;;;;;;;;;;26.70;57.90;;;;;;5053542;28;19966;-76
2022/05/10 14:27:13;;;;;;;;;;;26.70;58.10;;;;;;5053640;28;19904;-78
2022/05/10 14:29:42;;;;;;;;;;;26.70;58.20;;;;;;5054132;28;20410;-77
2022/05/10 14:32:08;;;;;;;;;;;;;;;;;;5053620;28;19912;-77
2022/05/10 14:34:34;;;;;;;;;;;;;;;;;;5053812;28;19908;-75
2022/05/10 14:37:00;;;;;;;;;;;;;;;;;;5053458;28;20273;-77
2022/05/10 14:39:27;;;;;;;;;;;;;;;;;;5053473;28;19935;-77
2022/05/10 14:41:52;;;;;;;;;;;;;;;;;;5053782;28;19970;-78
2022/05/10 14:44:18;;;;;;;;;;;;;;;;;;5056337;28;20391;-78
2022/05/10 14:46:44;;;;;;;;;;;;;;;;;;5057964;28;19940;-75
2022/05/10 14:49:10;;;;;;;;;;;;;;;;;;5057819;28;20071;-77
2022/05/10 14:51:36;;;;;;;;;;;;;;;;;;5039740;28;19909;-75
2022/05/10 14:54:02;;;;;;;;;;;;;;;;;;5057721;28;19911;-75
2022/05/10 14:56:28;;;;;;;;;;;;;;;;;;5057334;28;20289;-77